Time;durP1;ratioP1;P1;durP2;ratioP2;P2;SDS_P1;SDS_P2;PMS_P1;PMS_P2;Temp;Humidity;BMP_temperature;BMP_pressure;BME280_temperature;BME280_humidity;BME280_pressure;Samples;Min_cycle;Max_cycle;Signal;HPM_P1;HPM_P2
2023/07/19 00:00:51;;;;;;;7.27;3.60;;;;;21.50;96702.00;;;;4972921;28;20226;-86
2023/07/19 00:03:42;;;;;;;6.57;3.93;;;;;21.40;96708.00;;;;4975688;28;20222;-87
2023/07/19 00:06:31;;;;;;;8.33;3.80;;;;;21.50;96702.00;;;;4977252;28;20683;-88
2023/07/19 00:09:22;;;;;;;8.67;3.30;;;;;21.30;96701.00;;;;4980000;28;20673;-87
2023/07/19 00:12:11;;;;;;;4.03;2.90;;;;;20.70;96759.00;;;;4985234;28;20257;-87
2023/07/19 00:15:00;;;;;;;6.60;3.10;;;;;20.80;96789.00;;;;4968547;28;20671;-87
2023/07/19 00:17:49;;;;;;;7.57;3.40;;;;;21.20;96800.00;;;;4971905;28;20282;-88
2023/07/19 00:20:40;;;;;;;8.87;3.67;;;;;21.30;96796.00;;;;4977996;28;20281;-88
2023/07/19 00:23:29;;;;;;;7.67;3.10;;;;;21.30;96851.00;;;;4980112;28;20199;-87
2023/07/19 00:26:18;;;;;;;6.80;3.00;;;;;21.20;96871.00;;;;4974873;28;20250;-87
2023/07/19 00:29:07;;;;;;;6.20;3.53;;;;;20.60;96925.00;;;;4972053;28;20575;-87
2023/07/19 00:31:56;;;;;;;7.67;2.87;;;;;20.90;96917.00;;;;4975510;28;20238;-88
2023/07/19 00:34:46;;;;;;;8.40;3.27;;;;;21.00;96875.00;;;;4974132;28;20206;-88
2023/07/19 00:37:37;;;;;;;14.70;3.30;;;;;20.80;96886.00;;;;4973398;28;20204;-87
2023/07/19 00:40:26;;;;;;;7.57;3.07;;;;;21.00;96884.00;;;;4976034;28;20226;-87
2023/07/19 00:43:15;;;;;;;6.10;3.87;;;;;21.20;96799.00;;;;4976107;28;20591;-88
2023/07/19 00:46:04;;;;;;;5.47;3.63;;;;;21.10;96768.00;;;;4973916;28;20286;-87
2023/07/19 00:48:54;;;;;;;7.97;3.83;;;;;21.00;96700.00;;;;4969642;28;20207;-87
2023/07/19 00:51:43;;;;;;;7.93;3.33;;;;;21.10;96683.00;;;;4971615;28;20245;-88
2023/07/19 00:54:33;;;;;;;5.90;3.30;;;;;20.90;96673.00;;;;4976294;28;20690;-88
2023/07/19 00:57:23;;;;;;;9.03;3.10;;;;;20.70;96634.00;;;;4974030;28;20455;-88
2023/07/19 01:00:13;;;;;;;7.37;3.17;;;;;21.00;96646.00;;;;4972456;28;20227;-88
2023/07/19 01:03:02;;;;;;;6.70;3.20;;;;;21.20;96642.00;;;;4976944;28;20236;-89
2023/07/19 01:05:52;;;;;;;7.37;3.60;;;;;21.20;96609.00;;;;4978801;28;20283;-89
2023/07/19 01:08:42;;;;;;;5.13;3.73;;;;;21.10;96600.00;;;;4970558;28;20203;-89
2023/07/19 01:11:32;;;;;;;8.10;3.57;;;;;20.80;96634.00;;;;4973944;28;20878;-88
2023/07/19 01:14:22;;;;;;;9.70;4.10;;;;;20.30;96638.00;;;;4969821;28;20206;-88
2023/07/19 01:17:11;;;;;;;7.50;3.90;;;;;20.50;96638.00;;;;4978600;28;20573;-88
2023/07/19 01:20:00;;;;;;;6.80;3.80;;;;;20.60;96639.00;;;;4975120;28;20403;-89
2023/07/19 01:22:50;;;;;;;11.20;3.67;;;;;20.90;96627.00;;;;4974269;28;20561;-90
2023/07/19 01:25:40;;;;;;;7.97;3.87;;;;;20.80;96653.00;;;;4977517;28;20223;-88
2023/07/19 01:28:29;;;;;;;4.17;3.00;;;;;20.60;96657.00;;;;4980056;28;20592;-88
2023/07/19 01:31:18;;;;;;;5.93;3.17;;;;;20.80;96640.00;;;;4982038;28;20240;-90
2023/07/19 01:34:07;;;;;;;7.67;3.47;;;;;20.90;96616.00;;;;4983617;28;20281;-89
2023/07/19 01:36:57;;;;;;;11.83;4.00;;;;;20.50;96643.00;;;;4980126;28;20273;-89
2023/07/19 01:39:47;;;;;;;9.03;3.40;;;;;20.40;96647.00;;;;4976718;28;20237;-88
2023/07/19 01:42:37;;;;;;;5.90;3.37;;;;;20.20;96654.00;;;;4983185;28;20569;-89
2023/07/19 01:45:26;;;;;;;6.37;3.67;;;;;20.20;96653.00;;;;4979181;28;20272;-88
2023/07/19 01:48:15;;;;;;;7.60;4.40;;;;;20.10;96660.00;;;;4979255;28;20211;-89
2023/07/19 01:51:05;;;;;;;7.57;3.70;;;;;20.10;96646.00;;;;4979032;28;20241;-89
2023/07/19 01:53:54;;;;;;;7.30;3.67;;;;;20.50;96631.00;;;;4978440;28;20752;-88
2023/07/19 01:56:44;;;;;;;7.27;3.77;;;;;20.40;96623.00;;;;4977445;28;20200;-89
2023/07/19 01:59:33;;;;;;;6.50;3.40;;;;;20.20;96605.00;;;;4975400;28;20207;-88
2023/07/19 02:02:23;;;;;;;6.90;3.37;;;;;20.10;96617.00;;;;4975734;28;21359;-89
2023/07/19 02:05:12;;;;;;;9.80;3.87;;;;;19.50;96611.00;;;;4977188;28;20203;-88
2023/07/19 02:08:01;;;;;;;5.73;3.20;;;;;19.60;96623.00;;;;4973159;28;20209;-90
2023/07/19 02:10:50;;;;;;;8.90;4.53;;;;;19.80;96616.00;;;;4976236;28;20695;-88
2023/07/19 02:13:41;;;;;;;3.77;3.23;;;;;20.00;96642.00;;;;4978326;28;20230;-88
2023/07/19 02:16:30;;;;;;;11.97;4.47;;;;;19.90;96643.00;;;;4987660;28;20203;-89
2023/07/19 02:19:19;;;;;;;8.43;3.20;;;;;20.00;96636.00;;;;4981382;28;20256;-88
2023/07/19 02:22:08;;;;;;;6.50;3.17;;;;;20.30;96634.00;;;;4979428;28;20239;-88
2023/07/19 02:24:57;;;;;;;9.27;3.97;;;;;20.30;96645.00;;;;4977107;28;20211;-89
2023/07/19 02:27:46;;;;;;;13.13;3.43;;;;;20.50;96632.00;;;;4980855;28;20215;-88
2023/07/19 02:30:41;;;;;;;5.90;3.37;;;;;20.10;96635.00;;;;4978830;28;20223;-88
2023/07/19 02:33:30;;;;;;;8.30;3.10;;;;;20.10;96646.00;;;;4979256;28;20210;-89
2023/07/19 02:36:19;;;;;;;13.30;4.50;;;;;20.40;96641.00;;;;4981695;28;20206;-89
2023/07/19 02:39:08;;;;;;;6.17;3.80;;;;;20.40;96618.00;;;;4978187;28;20214;-89
2023/07/19 02:41:58;;;;;;;10.50;4.00;;;;;20.10;96618.00;;;;4976009;28;20223;-90
2023/07/19 02:44:48;;;;;;;5.43;2.90;;;;;20.30;96624.00;;;;4973194;28;20587;-88
2023/07/19 02:47:38;;;;;;;7.70;3.90;;;;;20.10;96649.00;;;;4972821;28;20231;-87
2023/07/19 02:50:27;;;;;;;8.60;3.40;;;;;19.20;96651.00;;;;4973307;28;20229;-88
2023/07/19 02:53:17;;;;;;;7.00;4.30;;;;;19.60;96656.00;;;;4977819;28;20439;-88
2023/07/19 02:56:06;;;;;;;10.93;4.20;;;;;19.80;96658.00;;;;4980768;28;20249;-89
2023/07/19 02:58:55;;;;;;;6.77;3.13;;;;;20.10;96651.00;;;;4977202;28;20212;-88
2023/07/19 03:01:44;;;;;;;6.53;3.10;;;;;20.20;96650.00;;;;4978594;28;20842;-89
2023/07/19 03:04:35;;;;;;;7.73;3.80;;;;;19.80;96658.00;;;;4974542;28;20687;-88
2023/07/19 03:07:24;;;;;;;11.17;3.60;;;;;19.80;96664.00;;;;4980316;28;20276;-90
2023/07/19 03:10:13;;;;;;;7.07;3.67;;;;;20.10;96664.00;;;;4973318;28;20599;-88
2023/07/19 03:13:02;;;;;;;5.47;3.07;;;;;20.00;96669.00;;;;4971987;28;20470;-89
2023/07/19 03:15:52;;;;;;;7.97;3.47;;;;;19.60;96659.00;;;;4981445;28;20266;-87
2023/07/19 03:18:41;;;;;;;10.00;3.80;;;;;19.80;96616.00;;;;4974223;28;20204;-89
2023/07/19 03:21:31;;;;;;;4.67;3.47;;;;;20.00;96618.00;;;;4979660;28;20245;-87
2023/07/19 03:24:21;;;;;;;8.70;4.37;;;;;20.10;96635.00;;;;4976070;28;20207;-87
2023/07/19 03:27:10;;;;;;;5.57;2.70;;;;;20.00;96639.00;;;;4980623;28;20234;-87
2023/07/19 03:29:59;;;;;;;5.80;3.73;;;;;19.30;96647.00;;;;4980466;28;20218;-89
2023/07/19 03:32:49;;;;;;;8.53;3.17;;;;;19.30;96637.00;;;;4977347;28;20211;-88
2023/07/19 03:35:38;;;;;;;7.80;3.47;;;;;19.90;96654.00;;;;4972726;28;20255;-89
2023/07/19 03:38:28;;;;;;;10.80;4.03;;;;;20.20;96668.00;;;;4975365;28;20214;-88
2023/07/19 03:41:17;;;;;;;6.73;3.63;;;;;20.10;96658.00;;;;4977759;28;20236;-90
2023/07/19 03:44:07;;;;;;;10.77;3.97;;;;;20.00;96660.00;;;;4980021;28;20258;-89
2023/07/19 03:46:56;;;;;;;9.00;3.13;;;;;20.10;96644.00;;;;4980060;28;20626;-89
2023/07/19 03:49:45;;;;;;;4.37;3.50;;;;;20.20;96620.00;;;;4979855;28;20203;-88
2023/07/19 03:52:34;;;;;;;6.67;3.43;;;;;20.30;96600.00;;;;4975916;28;20245;-89
2023/07/19 03:55:25;;;;;;;8.30;3.60;;;;;20.20;96576.00;;;;4973915;28;20214;-91
2023/07/19 03:58:14;;;;;;;5.90;3.65;;;;;20.00;96582.00;;;;4981058;28;20214;-89
2023/07/19 04:01:04;;;;;;;9.83;3.80;;;;;20.30;96595.00;;;;4975981;28;20714;-89
2023/07/19 04:03:53;;;;;;;9.80;3.40;;;;;20.30;96583.00;;;;4973794;28;20502;-87
2023/07/19 04:06:42;;;;;;;11.97;4.00;;;;;20.40;96575.00;;;;4978843;28;20235;-87
2023/07/19 04:09:31;;;;;;;5.73;3.67;;;;;20.00;96595.00;;;;4978280;28;20194;-87
2023/07/19 04:12:22;;;;;;;11.13;3.53;;;;;19.70;96595.00;;;;4979070;28;20743;-87
2023/07/19 04:15:11;;;;;;;14.00;3.30;;;;;19.70;96607.00;;;;4984703;28;20207;-88
2023/07/19 04:18:00;;;;;;;8.33;3.70;;;;;20.00;96613.00;;;;4978180;28;20205;-88
2023/07/19 04:20:55;;;;;;;10.90;4.67;;;;;20.00;96598.00;;;;4982564;28;20255;-88
2023/07/19 04:23:44;;;;;;;7.07;3.27;;;;;20.20;96614.00;;;;4983703;28;20208;-88
2023/07/19 04:26:33;;;;;;;6.77;3.00;;;;;20.30;96603.00;;;;4983761;28;20231;-88
2023/07/19 04:29:24;;;;;;;8.27;3.60;;;;;20.10;96593.00;;;;4973986;28;20219;-87
2023/07/19 04:32:13;;;;;;;5.43;3.23;;;;;20.00;96566.00;;;;4977569;28;20231;-88
2023/07/19 04:35:02;;;;;;;6.57;3.00;;;;;20.30;96560.00;;;;4977635;28;20206;-88
2023/07/19 04:37:51;;;;;;;8.20;3.53;;;;;19.90;96565.00;;;;4970731;28;20191;-87
2023/07/19 04:40:41;;;;;;;12.70;3.60;;;;;19.70;96571.00;;;;4979769;28;20603;-87
2023/07/19 04:43:30;;;;;;;9.77;3.83;;;;;19.70;96572.00;;;;4974680;28;20203;-87
2023/07/19 04:46:21;;;;;;;9.30;3.10;;;;;20.00;96572.00;;;;4975942;28;20709;-89
2023/07/19 04:49:10;;;;;;;6.43;4.13;;;;;19.50;96578.00;;;;4978612;28;20204;-89
2023/07/19 04:51:59;;;;;;;7.80;3.70;;;;;19.50;96580.00;;;;4965888;28;20703;-88
2023/07/19 04:54:48;;;;;;;7.40;4.27;;;;;19.50;96583.00;;;;4972756;28;20242;-90
2023/07/19 04:57:38;;;;;;;7.13;3.63;;;;;19.90;96593.00;;;;4972950;28;20215;-91
2023/07/19 05:00:27;;;;;;;6.87;3.53;;;;;19.90;96605.00;;;;5001016;23;20245;-71
2023/07/19 05:03:18;;;;;;;4.43;3.00;;;;;19.70;96605.00;;;;5006050;28;20213;-71
2023/07/19 05:06:07;;;;;;;5.63;2.93;;;;;19.80;96592.00;;;;5006759;28;20260;-71
2023/07/19 05:08:57;;;;;;;8.63;3.87;;;;;20.10;96605.00;;;;5000955;28;20229;-70
2023/07/19 05:11:46;;;;;;;6.10;3.20;;;;;20.10;96603.00;;;;5007360;28;20202;-71
2023/07/19 05:14:35;;;;;;;5.93;2.90;;;;;20.10;96612.00;;;;5002714;28;20241;-70
2023/07/19 05:17:24;;;;;;;4.63;2.87;;;;;19.60;96634.00;;;;5008275;28;20205;-70
2023/07/19 05:20:15;;;;;;;11.57;3.70;;;;;19.30;96658.00;;;;5006170;28;20210;-69
2023/07/19 05:23:04;;;;;;;6.53;3.37;;;;;19.60;96665.00;;;;5008442;28;20594;-72
2023/07/19 05:25:54;;;;;;;5.37;3.17;;;;;20.20;96646.00;;;;5008019;28;20217;-71
2023/07/19 05:28:43;;;;;;;11.20;3.67;;;;;20.50;96635.00;;;;5007209;28;20229;-71
2023/07/19 05:31:34;;;;;;;6.67;3.70;;;;;20.70;96628.00;;;;5007661;28;20202;-71
2023/07/19 05:34:23;;;;;;;4.23;2.60;;;;;20.80;96641.00;;;;5004512;28;20206;-72
2023/07/19 05:37:14;;;;;;;5.50;3.33;;;;;20.80;96625.00;;;;5007252;28;20217;-72
2023/07/19 05:40:04;;;;;;;9.20;4.10;;;;;20.80;96646.00;;;;5006100;28;20698;-72
2023/07/19 05:42:53;;;;;;;9.23;3.67;;;;;20.80;96630.00;;;;5004768;28;20217;-71
2023/07/19 05:45:43;;;;;;;7.93;4.53;;;;;20.80;96627.00;;;;5007251;28;20202;-70
2023/07/19 05:48:32;;;;;;;6.87;2.50;;;;;20.70;96625.00;;;;5006884;28;20257;-71
2023/07/19 05:51:21;;;;;;;15.57;3.60;;;;;20.20;96606.00;;;;5001891;28;20587;-73
2023/07/19 05:54:12;;;;;;;8.57;3.27;;;;;20.70;96610.00;;;;5005121;28;20217;-72
2023/07/19 05:57:01;;;;;;;6.43;3.97;;;;;20.90;96600.00;;;;5007196;28;20202;-72
2023/07/19 05:59:50;;;;;;;10.60;3.90;;;;;20.80;96592.00;;;;5005868;28;20238;-72
2023/07/19 06:02:39;;;;;;;6.80;3.47;;;;;20.30;96609.00;;;;5005966;28;20206;-72
2023/07/19 06:05:39;;;;;;;6.67;2.97;;;;;20.00;96617.00;;;;5003616;28;20198;-71
2023/07/19 06:08:29;;;;;;;11.33;3.53;;;;;20.20;96614.00;;;;5000938;28;20305;-70
2023/07/19 06:11:19;;;;;;;6.20;2.57;;;;;20.10;96618.00;;;;5005363;28;20800;-72
2023/07/19 06:14:08;;;;;;;4.27;2.73;;;;;20.40;96630.00;;;;5005572;28;20288;-71
2023/07/19 06:16:57;;;;;;;7.63;3.07;;;;;20.50;96631.00;;;;5007965;28;20572;-73
2023/07/19 06:19:46;;;;;;;4.87;3.00;;;;;21.00;96630.00;;;;5006694;28;20228;-71
2023/07/19 06:22:35;;;;;;;4.47;2.60;;;;;21.00;96617.00;;;;5005817;28;20206;-72
2023/07/19 06:25:24;;;;;;;4.43;2.43;;;;;20.90;96621.00;;;;5005678;28;20204;-71
2023/07/19 06:28:15;;;;;;;5.93;2.97;;;;;20.90;96610.00;;;;5009628;28;20237;-73
2023/07/19 06:31:04;;;;;;;6.37;3.17;;;;;20.60;96611.00;;;;5010570;28;20214;-70
2023/07/19 06:33:53;;;;;;;6.87;3.57;;;;;20.60;96618.00;;;;5019552;28;20225;-72
2023/07/19 06:36:42;;;;;;;4.07;3.30;;;;;20.30;96620.00;;;;5011999;28;20200;-71
2023/07/19 06:39:31;;;;;;;5.17;3.67;;;;;20.20;96620.00;;;;5008796;28;20695;-71
2023/07/19 06:42:20;;;;;;;6.07;4.77;;;;;21.10;96624.00;;;;5014307;28;20250;-72
2023/07/19 06:45:11;;;;;;;12.37;3.63;;;;;21.00;96614.00;;;;5013205;28;20202;-71
2023/07/19 06:48:00;;;;;;;6.70;3.17;;;;;21.00;96614.00;;;;5011594;28;20242;-71
2023/07/19 06:50:50;;;;;;;7.97;2.90;;;;;20.80;96612.00;;;;5012467;28;20210;-71
2023/07/19 06:53:39;;;;;;;4.80;2.87;;;;;20.70;96610.00;;;;5009478;28;20201;-72
2023/07/19 06:56:29;;;;;;;6.27;2.87;;;;;20.80;96612.00;;;;5014545;28;20205;-71
2023/07/19 06:59:18;;;;;;;4.37;3.10;;;;;21.10;96603.00;;;;5010891;28;20876;-70
2023/07/19 07:02:08;;;;;;;7.47;3.33;;;;;21.50;96594.00;;;;5016012;28;20682;-70
2023/07/19 07:04:57;;;;;;;6.60;2.97;;;;;21.50;96577.00;;;;5013922;28;20201;-72
2023/07/19 07:07:46;;;;;;;6.30;3.67;;;;;22.00;96578.00;;;;5010745;28;20198;-72
2023/07/19 07:10:36;;;;;;;10.90;3.60;;;;;21.70;96577.00;;;;5009989;28;20201;-71
2023/07/19 07:13:25;;;;;;;7.47;3.30;;;;;21.40;96594.00;;;;5018004;28;20204;-70
2023/07/19 07:16:14;;;;;;;7.00;3.63;;;;;21.60;96592.00;;;;5009050;28;20197;-71
2023/07/19 07:19:05;;;;;;;13.67;3.40;;;;;21.60;96591.00;;;;5005578;28;20584;-70
2023/07/19 07:21:54;;;;;;;6.67;2.97;;;;;22.20;96592.00;;;;5007131;28;20203;-71
2023/07/19 07:24:43;;;;;;;5.53;2.90;;;;;22.00;96592.00;;;;5010734;28;20679;-71
2023/07/19 07:27:32;;;;;;;7.50;3.50;;;;;21.90;96607.00;;;;5007036;28;20194;-72
2023/07/19 07:30:22;;;;;;;5.17;2.77;;;;;22.10;96614.00;;;;5003374;28;20744;-71
2023/07/19 07:33:11;;;;;;;7.23;2.97;;;;;21.90;96614.00;;;;5017111;28;20299;-71
2023/07/19 07:36:02;;;;;;;4.33;3.20;;;;;22.00;96607.00;;;;5011311;28;20233;-71
2023/07/19 07:38:51;;;;;;;3.37;2.43;;;;;22.20;96607.00;;;;5005415;28;20231;-71
2023/07/19 07:41:40;;;;;;;5.87;4.20;;;;;22.50;96608.00;;;;5020786;28;20202;-71
2023/07/19 07:44:30;;;;;;;8.67;3.20;;;;;22.90;96606.00;;;;5016273;28;20198;-70
2023/07/19 07:47:19;;;;;;;7.23;3.50;;;;;23.20;96593.00;;;;5014327;28;20213;-72
2023/07/19 07:50:09;;;;;;;6.77;3.20;;;;;23.70;96585.00;;;;5024174;28;20231;-72
2023/07/19 07:53:00;;;;;;;7.90;3.30;;;;;23.70;96587.00;;;;5013298;28;20206;-72
2023/07/19 07:55:55;;;;;;;6.37;3.50;;;;;23.20;96591.00;;;;5024288;28;20252;-71
2023/07/19 07:58:44;;;;;;;4.73;3.27;;;;;23.10;96584.00;;;;5009479;28;20232;-71
2023/07/19 08:01:33;;;;;;;7.63;3.77;;;;;23.20;96595.00;;;;5009566;28;20201;-72
2023/07/19 08:04:22;;;;;;;5.27;3.00;;;;;23.50;96594.00;;;;5004391;28;20207;-71
2023/07/19 08:07:13;;;;;;;6.83;3.37;;;;;23.90;96599.00;;;;5008497;28;20269;-72
2023/07/19 08:10:05;;;;;;;3.57;2.63;;;;;23.80;96605.00;;;;5005679;28;20226;-72
2023/07/19 08:12:54;;;;;;;7.60;3.23;;;;;24.00;96597.00;;;;4998809;28;20587;-71
2023/07/19 08:15:43;;;;;;;7.37;3.70;;;;;24.60;96604.00;;;;5007043;28;20210;-71
2023/07/19 08:18:32;;;;;;;7.17;3.40;;;;;24.80;96613.00;;;;5007531;28;20225;-70
2023/07/19 08:21:21;;;;;;;7.37;3.17;;;;;24.70;96614.00;;;;5007846;28;20235;-70
2023/07/19 08:24:18;;;;;;;8.07;3.20;;;;;24.90;96597.00;;;;5007966;28;20213;-71
2023/07/19 08:27:08;;;;;;;8.90;3.63;;;;;24.90;96617.00;;;;5004717;28;20216;-71
2023/07/19 08:29:57;;;;;;;9.17;4.23;;;;;25.00;96618.00;;;;5007792;28;20236;-71
2023/07/19 08:32:47;;;;;;;6.33;3.60;;;;;25.20;96612.00;;;;5011788;28;20205;-71
2023/07/19 08:35:36;;;;;;;6.43;2.80;;;;;25.30;96620.00;;;;5008792;28;20753;-72
2023/07/19 08:38:25;;;;;;;6.77;3.70;;;;;25.40;96617.00;;;;5008695;28;20243;-71
2023/07/19 08:41:14;;;;;;;6.33;2.83;;;;;25.60;96607.00;;;;5019707;28;20320;-71
2023/07/19 08:44:05;;;;;;;8.90;3.40;;;;;25.60;96601.00;;;;5005481;28;20210;-71
2023/07/19 08:46:55;;;;;;;4.53;2.80;;;;;25.50;96594.00;;;;5000416;28;20199;-72
2023/07/19 08:49:44;;;;;;;4.87;3.77;;;;;25.80;96581.00;;;;5018023;28;20725;-71
2023/07/19 08:52:34;;;;;;;5.77;2.83;;;;;26.00;96585.00;;;;5019688;28;20202;-71
2023/07/19 08:55:23;;;;;;;3.87;2.73;;;;;26.00;96598.00;;;;5015392;28;20210;-71
2023/07/19 08:58:12;;;;;;;8.23;3.07;;;;;24.80;96596.00;;;;5004500;28;20229;-73
2023/07/19 09:01:02;;;;;;;5.97;2.77;;;;;25.30;96603.00;;;;5017080;28;20214;-71
2023/07/19 09:03:51;;;;;;;6.17;2.83;;;;;26.10;96607.00;;;;5012760;28;20209;-71
2023/07/19 09:09:13;;;;;;;4.87;2.70;;;;;26.30;96613.00;;;;5044121;23;20654;-71
2023/07/19 09:12:08;;;;;;;4.93;3.17;;;;;26.60;96614.00;;;;5020059;28;20315;-71
2023/07/19 09:14:59;;;;;;;6.37;3.87;;;;;26.30;96619.00;;;;5017578;28;20198;-71
2023/07/19 09:17:50;;;;;;;4.27;2.87;;;;;26.30;96625.00;;;;5017999;28;20226;-71
2023/07/19 09:20:40;;;;;;;10.10;4.63;;;;;26.50;96634.00;;;;5019213;28;20208;-71
2023/07/19 09:23:36;;;;;;;7.27;3.37;;;;;26.10;96639.00;;;;5026704;28;20565;-71
2023/07/19 09:26:25;;;;;;;8.27;2.90;;;;;26.30;96645.00;;;;5018250;28;20194;-71
2023/07/19 09:29:14;;;;;;;3.43;2.67;;;;;26.40;96651.00;;;;5017509;28;20236;-71
2023/07/19 09:32:04;;;;;;;7.10;2.70;;;;;26.40;96634.00;;;;5021169;28;20208;-71
2023/07/19 09:34:56;;;;;;;4.80;2.50;;;;;26.90;96640.00;;;;5015414;28;20202;-71
2023/07/19 09:37:45;;;;;;;7.87;3.13;;;;;27.20;96637.00;;;;5021978;28;20221;-71
2023/07/19 09:40:35;;;;;;;6.03;3.10;;;;;27.50;96634.00;;;;5015454;28;20203;-71
2023/07/19 09:43:24;;;;;;;10.30;3.03;;;;;27.80;96628.00;;;;5021667;28;20285;-71
2023/07/19 09:46:13;;;;;;;5.03;2.87;;;;;28.20;96634.00;;;;5021605;28;20218;-71
2023/07/19 09:49:02;;;;;;;5.83;2.83;;;;;28.30;96622.00;;;;5013375;28;20245;-71
2023/07/19 09:51:54;;;;;;;7.30;3.43;;;;;28.50;96611.00;;;;5017972;28;20215;-71
2023/07/19 09:54:44;;;;;;;4.80;3.47;;;;;29.00;96606.00;;;;5025553;28;20867;-71
2023/07/19 09:57:36;;;;;;;4.37;3.20;;;;;29.20;96598.00;;;;5024372;28;20224;-71
2023/07/19 10:00:26;;;;;;;6.57;3.57;;;;;29.30;96580.00;;;;5022854;28;20199;-71
2023/07/19 10:03:19;;;;;;;9.97;3.23;;;;;29.30;96591.00;;;;5021507;28;20207;-71
2023/07/19 10:06:10;;;;;;;6.13;3.03;;;;;29.10;96591.00;;;;5024977;28;20337;-71
2023/07/19 10:09:46;;;;;;;7.97;2.97;;;;;29.00;96591.00;;;;5025645;28;20227;-71
2023/07/19 10:12:39;;;;;;;6.57;2.93;;;;;30.00;96587.00;;;;5023347;28;20200;-72
2023/07/19 10:15:29;;;;;;;9.80;3.33;;;;;30.50;96558.00;;;;5027891;28;20210;-71
2023/07/19 10:18:20;;;;;;;6.13;3.37;;;;;30.70;96579.00;;;;5022305;28;21251;-71
2023/07/19 10:21:10;;;;;;;8.73;2.97;;;;;30.10;96590.00;;;;5023215;28;20255;-72
2023/07/19 10:24:06;;;;;;;15.97;4.10;;;;;29.80;96560.00;;;;5025129;28;20208;-72
2023/07/19 10:26:55;;;;;;;8.93;3.57;;;;;30.30;96546.00;;;;5026628;28;20199;-71
2023/07/19 10:29:47;;;;;;;10.07;3.60;;;;;30.60;96542.00;;;;5026609;28;20301;-72
2023/07/19 10:32:36;;;;;;;7.33;4.20;;;;;30.50;96537.00;;;;5026084;28;20214;-72
2023/07/19 10:35:32;;;;;;;9.43;4.93;;;;;31.20;96536.00;;;;5026548;28;20203;-71
2023/07/19 10:38:22;;;;;;;5.57;3.47;;;;;32.00;96545.00;;;;5028007;28;20222;-72
2023/07/19 10:41:12;;;;;;;9.07;3.67;;;;;32.20;96538.00;;;;5027364;28;20207;-72
2023/07/19 10:44:01;;;;;;;6.47;3.20;;;;;32.50;96532.00;;;;5020511;28;20370;-72
2023/07/19 10:46:53;;;;;;;7.72;3.20;;;;;33.40;96517.00;;;;5024421;28;20209;-72
2023/07/19 10:49:42;;;;;;;7.90;3.47;;;;;33.60;96508.00;;;;5029863;28;20232;-72
2023/07/19 10:52:31;;;;;;;6.47;3.33;;;;;33.70;96518.00;;;;5027075;28;20199;-72
2023/07/19 10:55:20;;;;;;;6.80;3.45;;;;;33.20;96507.00;;;;5028515;28;20213;-72
2023/07/19 10:58:18;;;;;;;5.22;2.70;;;;;33.00;96516.00;;;;5025651;28;20223;-72
2023/07/19 11:01:08;;;;;;;9.82;3.80;;;;;33.20;96502.00;;;;5023203;28;20204;-72
2023/07/19 11:04:02;;;;;;;4.97;2.85;;;;;34.30;96501.00;;;;5026651;28;20677;-72
2023/07/19 11:06:58;;;;;;;6.57;3.15;;;;;34.60;96523.00;;;;5026583;28;20200;-72
2023/07/19 11:09:50;;;;;;;4.38;2.90;;;;;34.10;96517.00;;;;5023763;28;20220;-72
2023/07/19 11:12:41;;;;;;;7.50;3.83;;;;;32.60;96526.00;;;;5021226;28;20597;-72
2023/07/19 11:15:31;;;;;;;4.43;3.17;;;;;32.90;96517.00;;;;5027988;28;20247;-72
2023/07/19 11:18:27;;;;;;;7.85;2.97;;;;;32.20;96517.00;;;;5022668;28;20220;-72
2023/07/19 11:21:27;;;;;;;10.25;3.78;;;;;32.00;96508.00;;;;5025513;28;20196;-72
2023/07/19 11:24:16;;;;;;;8.02;3.33;;;;;32.10;96508.00;;;;5027902;28;20265;-72
2023/07/19 11:27:06;;;;;;;5.18;3.42;;;;;32.20;96493.00;;;;5026008;28;20219;-72
2023/07/19 11:29:56;;;;;;;4.35;2.78;;;;;32.20;96499.00;;;;5022028;28;20687;-72
2023/07/19 11:32:46;;;;;;;6.10;3.00;;;;;32.00;96483.00;;;;5029174;28;20586;-73
2023/07/19 11:35:35;;;;;;;3.53;2.75;;;;;32.10;96493.00;;;;5028201;28;20214;-72
2023/07/19 11:38:26;;;;;;;6.60;3.20;;;;;32.20;96488.00;;;;5024244;28;20772;-72
2023/07/19 11:41:18;;;;;;;7.88;2.97;;;;;32.20;96489.00;;;;5027917;28;20207;-72
2023/07/19 11:44:07;;;;;;;5.07;3.30;;;;;32.20;96488.00;;;;5022731;28;20235;-72
2023/07/19 11:46:57;;;;;;;4.00;3.08;;;;;32.30;96491.00;;;;5027143;28;20204;-72
2023/07/19 11:49:46;;;;;;;6.85;3.40;;;;;32.60;96501.00;;;;5029505;28;20751;-72
2023/07/19 11:52:47;;;;;;;7.93;3.13;;;;;32.50;96513.00;;;;5028063;28;20203;-72
2023/07/19 11:55:38;;;;;;;9.52;3.25;;;;;32.50;96505.00;;;;5028730;28;20359;-72
2023/07/19 11:58:27;;;;;;;6.35;3.10;;;;;32.10;96516.00;;;;5027553;28;20227;-72
2023/07/19 12:01:23;;;;;;;5.13;2.63;;;;;30.70;96508.00;;;;5023746;28;20203;-70
2023/07/19 12:04:12;;;;;;;6.40;3.08;;;;;30.40;96515.00;;;;5020346;28;20219;-70
2023/07/19 12:07:01;;;;;;;3.17;2.88;;;;;30.60;96504.00;;;;5018885;28;20254;-70
2023/07/19 12:09:50;;;;;;;6.20;3.30;;;;;31.30;96491.00;;;;5021814;28;20207;-71
2023/07/19 12:12:41;;;;;;;7.30;3.28;;;;;32.10;96478.00;;;;5023939;28;20582;-71
2023/07/19 12:15:30;;;;;;;3.53;3.03;;;;;32.80;96467.00;;;;5024009;28;20201;-71
2023/07/19 12:18:19;;;;;;;6.57;3.40;;;;;33.10;96449.00;;;;5023248;28;20229;-71
2023/07/19 12:21:08;;;;;;;3.50;3.20;;;;;33.80;96444.00;;;;5024565;28;20209;-71
2023/07/19 12:23:57;;;;;;;4.47;2.85;;;;;33.70;96440.00;;;;5026482;28;20233;-71
2023/07/19 12:26:47;;;;;;;6.45;3.75;;;;;34.20;96426.00;;;;5027339;28;20677;-71
2023/07/19 12:29:37;;;;;;;9.73;3.13;;;;;34.20;96431.00;;;;5026553;28;20203;-71
2023/07/19 12:32:36;;;;;;;6.18;2.80;;;;;34.10;96420.00;;;;5022554;28;20205;-71
2023/07/19 12:35:26;;;;;;;5.22;2.95;;;;;34.30;96407.00;;;;5025094;28;20468;-71
2023/07/19 12:38:15;;;;;;;8.95;2.92;;;;;34.10;96404.00;;;;5023864;28;20709;-71
2023/07/19 12:41:04;;;;;;;7.13;4.20;;;;;33.60;96402.00;;;;5025706;28;20234;-71
2023/07/19 12:43:53;;;;;;;7.45;4.22;;;;;33.90;96410.00;;;;5024692;28;20643;-71
2023/07/19 12:46:46;;;;;;;8.27;3.75;;;;;33.40;96403.00;;;;5016610;28;20228;-71
2023/07/19 12:49:35;;;;;;;5.65;3.80;;;;;32.80;96447.00;;;;5018568;28;20258;-71
2023/07/19 12:52:25;;;;;;;6.47;3.42;;;;;32.60;96455.00;;;;5027438;28;20353;-71
2023/07/19 12:55:17;;;;;;;8.40;3.05;;;;;32.70;96435.00;;;;5027674;28;20216;-71
2023/07/19 12:58:06;;;;;;;8.07;5.78;;;;;32.40;96442.00;;;;5022969;28;20222;-71
2023/07/19 13:00:56;;;;;;;7.22;3.33;;;;;32.00;96449.00;;;;5026646;28;20198;-70
2023/07/19 13:03:46;;;;;;;6.57;3.20;;;;;31.60;96458.00;;;;5026875;28;20220;-71
2023/07/19 13:06:36;;;;;;;5.07;2.90;;;;;31.40;96464.00;;;;5018627;28;20301;-71
2023/07/19 13:09:25;;;;;;;7.72;3.72;;;;;31.10;96468.00;;;;4998098;28;20205;-71
2023/07/19 13:12:15;;;;;;;5.22;3.53;;;;;30.80;96465.00;;;;5002476;28;20239;-70
2023/07/19 13:15:05;;;;;;;6.03;3.67;;;;;30.60;96460.00;;;;4997926;28;20235;-70
2023/07/19 13:17:55;;;;;;;4.88;2.85;;;;;30.20;96456.00;;;;5003059;28;20607;-70
2023/07/19 13:20:45;;;;;;;7.85;3.65;;;;;30.00;96463.00;;;;5005070;28;20218;-70
2023/07/19 13:23:34;;;;;;;7.05;3.90;;;;;29.60;96478.00;;;;5003874;28;20422;-70
2023/07/19 13:26:24;;;;;;;8.30;4.22;;;;;29.10;96504.00;;;;4999702;28;20423;-70
2023/07/19 13:29:13;;;;;;;8.73;3.50;;;;;28.80;96526.00;;;;5002705;28;20237;-70
2023/07/19 13:32:02;;;;;;;9.00;4.00;;;;;28.20;96538.00;;;;5001922;28;20825;-71
2023/07/19 13:34:53;;;;;;;7.23;4.60;;;;;27.40;96549.00;;;;5002286;28;20218;-70
2023/07/19 13:37:43;;;;;;;9.83;4.40;;;;;27.60;96541.00;;;;5006122;28;20228;-70
2023/07/19 13:40:35;;;;;;;7.80;3.60;;;;;27.80;96516.00;;;;4999605;28;20265;-70
2023/07/19 13:43:24;;;;;;;5.67;3.57;;;;;27.60;96499.00;;;;5001442;28;20598;-69
2023/07/19 13:46:13;;;;;;;8.13;4.53;;;;;27.40;96486.00;;;;5003859;28;20606;-69
2023/07/19 13:49:03;;;;;;;6.50;4.00;;;;;26.60;96483.00;;;;4997883;28;20220;-69
2023/07/19 13:51:52;;;;;;;5.80;4.10;;;;;26.80;96488.00;;;;4998306;28;20231;-69
2023/07/19 13:54:42;;;;;;;6.43;4.10;;;;;26.50;96493.00;;;;4998980;28;20707;-69
2023/07/19 13:57:33;;;;;;;7.77;4.37;;;;;26.60;96493.00;;;;5000465;28;20231;-69
2023/07/19 14:00:22;;;;;;;10.67;7.07;;;;;26.30;96486.00;;;;4997631;28;20202;-69
2023/07/19 14:03:12;;;;;;;6.23;3.70;;;;;26.50;96483.00;;;;4999506;28;20204;-69
2023/07/19 14:06:04;;;;;;;6.17;3.87;;;;;26.50;96470.00;;;;4993008;28;20204;-69
2023/07/19 14:08:53;;;;;;;6.00;4.23;;;;;25.40;96460.00;;;;5019917;28;20234;-70
2023/07/19 14:11:44;;;;;;;6.13;4.03;;;;;24.80;96449.00;;;;5018561;28;20730;-70